Accueil
METAR-TAF:

METAR-TAF

Aéroports :

Funafuti, Tuvalu

latitude: 08-31S, longitude: 179-13E, altitude: 1 m

Observation

Le bulletin a été fait il y a 46 minutes, à 13:00 UTC
Vent calme
Température 27°C
Humidité 84%
Pression 1010 hPa
Visibilité 10 km ou plus
Quelques nuages à une hauteur de 2000 ft, Cumulus congestus.

METAR: NGFU 211300Z 00000KT 9999 FEW020TCU 27/24 Q1010

Heure: 01:46 (13:46 UTC)

Prévision

Le bulletin a été fait il y a 2 heures et 14 minutes, à 11:32 UTC
Prévision valable du 21 à 12 UTC au 22 à 12 UTC
Vent 6 kt de est
Visibilité 10 km ou plus
Quelques nuages à une hauteur de 1800 ft
Nuages épars à une hauteur de 5000 ft
Probabilité 30% :
Temporairement
du 21 à 12 UTC au 21 à 18 UTC
Visibilité: 5000 m
Quelques nuages à une hauteur de 1800 ft, Cumulonimbus.
orage, pluie

TAF: NGFU 211132Z 2112/2212 09006KT 9999 FEW018 SCT050 PROB30 TEMPO 2112/2118 5000 TSRA FEW018CB

Observations et prévisions météorologiques de plus de 4000 aéroports (messages METAR et TAF).

Les stations disponibles sont représentées par des disques jaunes et rouges sur la carte.

Passer la souris dessus pour voir le nom de la station.

Cliquer dessus pour voir les observations et prévisions météorologiques.

Pour changer de carte: cliquez sur les boutons verts avec une croix noire pour zoomer, sur le bouton vert avec un tiret pour effectuer un zoom arrière, ou sur les flèches vertes pour les cartes adjacentes.


METAR-TAF: